createdAt,value
2023-04-15T00:01:10.690Z,3.53
2023-04-15T00:03:37.968Z,3.47
2023-04-15T00:06:05.286Z,4.15
2023-04-15T00:08:33.496Z,3.63
2023-04-15T00:11:03.158Z,3.80
2023-04-15T00:13:30.218Z,3.58
2023-04-15T00:15:57.127Z,3.65
2023-04-15T00:18:24.932Z,3.60
2023-04-15T00:20:52.556Z,3.55
2023-04-15T00:23:21.158Z,3.90
2023-04-15T00:25:47.840Z,3.55
2023-04-15T00:28:14.714Z,4.25
2023-04-15T00:30:43.760Z,3.78
2023-04-15T00:33:12.418Z,4.13
2023-04-15T00:35:39.496Z,4.13
2023-04-15T00:38:08.120Z,4.65
2023-04-15T00:40:35.538Z,4.15
2023-04-15T00:43:02.670Z,4.07
2023-04-15T00:45:30.291Z,4.20
2023-04-15T00:47:57.303Z,4.35
2023-04-15T00:50:24.089Z,4.20
2023-04-15T00:52:50.825Z,4.22
2023-04-15T00:55:17.522Z,4.65
2023-04-15T00:57:44.765Z,4.68
2023-04-15T01:00:12.209Z,4.50
2023-04-15T01:02:39.685Z,4.90
2023-04-15T01:05:08.124Z,4.00
2023-04-15T01:07:34.932Z,4.00
2023-04-15T01:10:04.484Z,4.80
2023-04-15T01:12:34.564Z,4.72
2023-04-15T01:15:03.191Z,4.88
2023-04-15T01:17:31.856Z,5.13
2023-04-15T01:19:58.894Z,4.63
2023-04-15T01:22:26.740Z,5.00
2023-04-15T01:25:11.595Z,5.57
2023-04-15T01:27:40.960Z,5.20
2023-04-15T01:30:09.175Z,5.32
2023-04-15T01:32:36.390Z,5.38
2023-04-15T01:35:03.262Z,5.68
2023-04-15T01:37:30.997Z,5.22
2023-04-15T01:39:58.513Z,4.93
2023-04-15T01:42:26.398Z,5.63
2023-04-15T01:44:53.726Z,5.18
2023-04-15T01:47:20.794Z,5.63
2023-04-15T01:49:47.793Z,5.30
2023-04-15T01:52:15.966Z,5.43
2023-04-15T01:54:42.639Z,5.78
2023-04-15T01:57:09.868Z,5.65
2023-04-15T01:59:37.323Z,5.50
2023-04-15T02:02:05.456Z,5.50
2023-04-15T02:04:35.532Z,5.18
2023-04-15T02:07:02.373Z,5.90
2023-04-15T02:09:29.277Z,5.45
2023-04-15T02:11:56.576Z,5.45
2023-04-15T02:14:23.828Z,5.55
2023-04-15T02:16:50.564Z,5.00
2023-04-15T02:19:17.593Z,5.40
2023-04-15T02:21:47.168Z,6.07
2023-04-15T02:24:17.900Z,6.18
2023-04-15T02:26:46.628Z,6.03
2023-04-15T02:29:13.304Z,5.55
2023-04-15T02:31:42.248Z,5.85
2023-04-15T02:34:09.427Z,5.72
2023-04-15T02:36:36.426Z,5.85
2023-04-15T02:39:05.932Z,6.30
2023-04-15T02:41:32.695Z,6.03
2023-04-15T02:43:59.745Z,5.75
2023-04-15T02:46:30.310Z,6.43
2023-04-15T02:48:57.093Z,6.28
2023-04-15T02:51:24.534Z,5.88
2023-04-15T02:53:51.275Z,6.20
2023-04-15T02:56:19.507Z,6.43
2023-04-15T02:58:46.636Z,6.00
2023-04-15T03:01:16.533Z,6.25
2023-04-15T03:03:43.639Z,5.85
2023-04-15T03:06:10.758Z,6.43
2023-04-15T03:08:37.406Z,6.18
2023-04-15T03:11:05.022Z,6.38
2023-04-15T03:13:33.773Z,6.60
2023-04-15T03:16:09.985Z,6.63
2023-04-15T03:18:36.853Z,6.50
2023-04-15T03:21:05.003Z,7.63
2023-04-15T03:23:34.949Z,6.72
2023-04-15T03:26:04.902Z,6.60
2023-04-15T03:28:33.413Z,6.50
2023-04-15T03:31:01.063Z,6.68
2023-04-15T03:33:28.118Z,6.53
2023-04-15T03:35:54.930Z,6.78
2023-04-15T03:38:21.603Z,6.40
2023-04-15T03:40:48.310Z,6.68
2023-04-15T03:43:15.319Z,6.32
2023-04-15T03:45:42.196Z,7.03
2023-04-15T03:48:17.173Z,6.43
2023-04-15T03:50:46.524Z,6.63
2023-04-15T03:53:13.190Z,6.93
2023-04-15T03:55:40.275Z,6.60
2023-04-15T03:58:06.951Z,6.75
2023-04-15T04:00:33.484Z,6.90
2023-04-15T04:03:02.298Z,6.80
2023-04-15T04:05:29.557Z,6.63
2023-04-15T04:07:56.645Z,6.90
2023-04-15T04:10:23.232Z,6.72
2023-04-15T04:12:50.004Z,6.88
2023-04-15T04:15:17.013Z,6.85
2023-04-15T04:17:43.812Z,6.65
2023-04-15T04:20:13.757Z,6.30
2023-04-15T04:22:41.275Z,6.55
2023-04-15T04:25:10.149Z,7.53
2023-04-15T04:27:36.944Z,7.22
2023-04-15T04:30:04.441Z,7.80
2023-04-15T04:32:32.260Z,6.55
2023-04-15T04:34:59.096Z,7.10
2023-04-15T04:37:28.083Z,6.95
2023-04-15T04:39:55.768Z,7.05
2023-04-15T04:42:22.759Z,7.25
2023-04-15T04:44:49.431Z,6.82
2023-04-15T04:47:16.452Z,7.20
2023-04-15T04:49:43.070Z,7.60
2023-04-15T04:52:09.711Z,7.07
2023-04-15T04:54:37.219Z,7.45
2023-04-15T04:57:04.261Z,7.55
2023-04-15T04:59:32.632Z,7.18
2023-04-15T05:01:59.415Z,7.28
2023-04-15T05:04:26.518Z,7.45
2023-04-15T05:06:53.285Z,7.53
2023-04-15T05:09:20.037Z,6.70
2023-04-15T05:11:46.689Z,7.55
2023-04-15T05:14:13.414Z,7.78
2023-04-15T05:16:41.495Z,6.88
2023-04-15T05:19:08.196Z,7.75
2023-04-15T05:21:34.913Z,7.68
2023-04-15T05:24:01.698Z,8.30
2023-04-15T05:26:28.801Z,7.45
2023-04-15T05:28:55.550Z,7.40
2023-04-15T05:31:22.369Z,7.60
2023-04-15T05:33:49.157Z,6.88
2023-04-15T05:36:17.447Z,7.95
2023-04-15T05:38:44.143Z,8.02
2023-04-15T05:41:11.197Z,7.80
2023-04-15T05:43:37.931Z,7.45
2023-04-15T05:46:04.706Z,7.93
2023-04-15T05:48:31.817Z,6.82
2023-04-15T05:50:58.659Z,7.47
2023-04-15T05:53:25.666Z,7.13
2023-04-15T05:55:52.447Z,7.35
2023-04-15T05:58:19.092Z,7.30
2023-04-15T06:00:46.241Z,7.53
2023-04-15T06:03:13.421Z,7.38
2023-04-15T06:05:40.698Z,8.07
2023-04-15T06:08:07.462Z,7.65
2023-04-15T06:10:36.831Z,7.18
2023-04-15T06:13:04.254Z,7.57
2023-04-15T06:15:31.855Z,7.18
2023-04-15T06:17:58.677Z,7.00
2023-04-15T06:20:25.569Z,7.57
2023-04-15T06:22:52.286Z,6.60
2023-04-15T06:25:19.156Z,7.43
2023-04-15T06:27:46.046Z,6.80
2023-04-15T06:30:14.153Z,7.60
2023-04-15T06:32:41.731Z,6.43
2023-04-15T06:35:09.062Z,7.10
2023-04-15T06:37:35.699Z,7.25
2023-04-15T06:40:02.513Z,6.72
2023-04-15T06:42:32.087Z,6.85
2023-04-15T06:44:58.687Z,7.05
2023-04-15T06:47:26.213Z,6.80
2023-04-15T06:49:53.284Z,6.60
2023-04-15T06:52:20.027Z,6.43
2023-04-15T06:54:47.076Z,6.70
2023-04-15T06:57:13.924Z,6.38
2023-04-15T06:59:43.571Z,6.57
2023-04-15T07:02:13.843Z,6.38
2023-04-15T07:04:41.279Z,6.72
2023-04-15T07:07:09.172Z,6.60
2023-04-15T07:09:36.112Z,6.65
2023-04-15T07:12:03.013Z,6.65
2023-04-15T07:14:30.018Z,5.60
2023-04-15T07:16:57.809Z,5.20
2023-04-15T07:19:24.590Z,6.20
2023-04-15T07:21:51.384Z,6.13
2023-04-15T07:24:21.426Z,5.80
2023-04-15T07:26:49.300Z,5.45
2023-04-15T07:29:16.089Z,5.97
2023-04-15T07:31:43.329Z,5.82
2023-04-15T07:34:10.791Z,5.80
2023-04-15T07:36:37.550Z,5.57
2023-04-15T07:39:04.382Z,5.15
2023-04-15T07:41:32.413Z,5.50
2023-04-15T07:43:59.044Z,4.95
2023-04-15T07:46:27.554Z,5.75
2023-04-15T07:48:54.321Z,5.55
2023-04-15T07:51:21.549Z,5.75
2023-04-15T07:53:50.397Z,6.05
2023-04-15T07:56:19.396Z,5.28
2023-04-15T07:58:48.823Z,5.95
2023-04-15T08:01:15.527Z,6.25
2023-04-15T08:03:43.093Z,5.53
2023-04-15T08:06:09.955Z,5.30
2023-04-15T08:08:36.696Z,5.20
2023-04-15T08:11:03.398Z,5.05
2023-04-15T08:13:29.992Z,5.38
2023-04-15T08:16:34.702Z,4.85
2023-04-15T08:19:01.911Z,4.90
2023-04-15T08:21:31.130Z,5.22
2023-04-15T08:23:57.981Z,5.30
2023-04-15T08:26:24.561Z,4.97
2023-04-15T08:28:52.813Z,5.35
2023-04-15T08:31:20.095Z,7.28
2023-04-15T08:33:46.909Z,5.32
2023-04-15T08:36:14.069Z,6.22
2023-04-15T08:38:42.195Z,6.05
2023-04-15T08:41:25.175Z,5.80
2023-04-15T08:44:02.083Z,6.07
2023-04-15T08:46:30.216Z,6.47
2023-04-15T08:48:58.467Z,5.43
2023-04-15T08:51:25.186Z,5.57
2023-04-15T08:53:53.151Z,5.65
2023-04-15T08:56:23.312Z,6.65
2023-04-15T08:58:51.159Z,7.90
2023-04-15T09:01:19.442Z,6.50
2023-04-15T09:03:49.351Z,6.65
2023-04-15T09:06:19.289Z,6.53
2023-04-15T09:08:46.196Z,7.00
2023-04-15T09:11:13.454Z,5.72
2023-04-15T09:13:40.477Z,5.45
2023-04-15T09:16:08.518Z,4.53
2023-04-15T09:18:36.742Z,5.80
2023-04-15T09:21:16.482Z,4.55
2023-04-15T09:24:01.163Z,3.83
2023-04-15T09:26:36.882Z,6.20
2023-04-15T09:29:08.404Z,3.40
2023-04-15T09:31:37.700Z,4.03
2023-04-15T09:34:04.661Z,3.88
2023-04-15T09:36:56.908Z,4.05
2023-04-15T09:39:23.791Z,2.80
2023-04-15T09:42:08.018Z,2.72
2023-04-15T09:44:34.864Z,2.75
2023-04-15T09:47:02.131Z,2.70
2023-04-15T09:49:30.270Z,2.83
2023-04-15T09:52:06.336Z,3.53
2023-04-15T09:54:35.426Z,3.33
2023-04-15T09:57:07.301Z,3.05
2023-04-15T09:59:34.475Z,2.83
2023-04-15T10:02:05.425Z,2.85
2023-04-15T10:04:35.602Z,3.20
2023-04-15T10:07:05.178Z,2.58
2023-04-15T10:09:33.699Z,2.63
2023-04-15T10:12:01.183Z,2.22
2023-04-15T10:14:32.595Z,2.38
2023-04-15T10:17:03.212Z,2.30
2023-04-15T10:19:33.693Z,2.20
2023-04-15T10:22:01.094Z,2.30
2023-04-15T10:24:28.415Z,2.50
2023-04-15T10:26:55.611Z,2.90
2023-04-15T10:29:25.635Z,3.35
2023-04-15T10:31:55.627Z,2.58
2023-04-15T10:34:24.112Z,2.80
2023-04-15T10:36:53.920Z,2.40
2023-04-15T10:39:40.929Z,2.63
2023-04-15T10:42:12.748Z,3.28
2023-04-15T10:44:43.108Z,2.55
2023-04-15T10:47:19.875Z,3.60
2023-04-15T10:49:59.952Z,2.53
2023-04-15T10:52:33.460Z,8.32
2023-04-15T10:55:17.692Z,3.17
2023-04-15T10:57:44.974Z,2.95
2023-04-15T11:00:13.440Z,2.28
2023-04-15T11:02:42.621Z,1.60
2023-04-15T11:05:11.486Z,1.65
2023-04-15T11:07:44.204Z,1.90
2023-04-15T11:10:13.877Z,1.53
2023-04-15T11:12:42.452Z,1.60
2023-04-15T11:15:29.428Z,1.90
2023-04-15T11:18:00.986Z,1.77
2023-04-15T11:20:27.852Z,1.63
2023-04-15T11:23:14.800Z,1.90
2023-04-15T11:25:44.358Z,1.90
2023-04-15T11:28:14.924Z,1.92
2023-04-15T11:30:42.589Z,2.40
2023-04-15T11:33:18.045Z,2.58
2023-04-15T11:35:44.850Z,2.22
2023-04-15T11:38:14.277Z,1.83
2023-04-15T11:40:45.278Z,2.05
2023-04-15T11:43:24.431Z,2.47
2023-04-15T11:46:02.116Z,1.48
2023-04-15T11:48:33.381Z,2.30
2023-04-15T11:51:04.300Z,2.50
2023-04-15T11:53:38.922Z,2.22
2023-04-15T11:56:07.157Z,2.33
2023-04-15T11:58:39.750Z,1.92
2023-04-15T12:01:07.529Z,1.70
2023-04-15T12:03:38.854Z,1.90
2023-04-15T12:06:25.075Z,2.15
2023-04-15T12:08:55.372Z,2.50
2023-04-15T12:11:31.483Z,2.40
2023-04-15T12:14:12.866Z,2.40
2023-04-15T12:17:01.666Z,1.40
2023-04-15T12:19:36.661Z,1.90
2023-04-15T12:22:06.729Z,1.30
2023-04-15T12:24:35.106Z,1.80
2023-04-15T12:27:04.155Z,1.52
2023-04-15T12:29:34.374Z,1.50
2023-04-15T12:32:13.681Z,1.90
2023-04-15T12:34:42.453Z,2.85
2023-04-15T12:37:11.914Z,2.20
2023-04-15T12:39:40.675Z,2.20
2023-04-15T12:42:08.917Z,2.30
2023-04-15T12:44:39.383Z,2.90
2023-04-15T12:47:07.938Z,1.90
2023-04-15T12:49:35.536Z,2.00
2023-04-15T12:52:03.288Z,1.88
2023-04-15T12:54:31.432Z,1.73
2023-04-15T12:56:58.790Z,1.90
2023-04-15T12:59:28.217Z,1.80
2023-04-15T13:01:56.495Z,2.30
2023-04-15T13:04:27.687Z,2.40
2023-04-15T13:06:54.469Z,1.98
2023-04-15T13:09:25.071Z,1.92
2023-04-15T13:11:52.755Z,2.15
2023-04-15T13:14:19.829Z,1.85
2023-04-15T13:16:46.635Z,1.38
2023-04-15T13:19:13.252Z,1.90
2023-04-15T13:21:39.947Z,1.73
2023-04-15T13:24:07.235Z,3.95
2023-04-15T13:26:34.189Z,2.60
2023-04-15T13:29:03.780Z,3.00
2023-04-15T13:31:31.129Z,2.72
2023-04-15T13:33:58.166Z,4.25
2023-04-15T13:36:24.970Z,2.60
2023-04-15T13:38:54.414Z,2.25
2023-04-15T13:41:21.401Z,2.15
2023-04-15T13:43:49.420Z,1.98
2023-04-15T13:46:16.665Z,1.48
2023-04-15T13:48:43.750Z,1.50
2023-04-15T13:51:10.735Z,1.40
2023-04-15T13:53:38.264Z,1.95
2023-04-15T13:56:09.168Z,1.60
2023-04-15T13:58:37.517Z,3.15
2023-04-15T14:01:07.130Z,1.88
2023-04-15T14:03:37.488Z,1.80
2023-04-15T14:06:05.773Z,1.60
2023-04-15T14:08:32.718Z,2.00
2023-04-15T14:11:02.139Z,2.22
2023-04-15T14:13:29.244Z,10.50
2023-04-15T14:15:57.084Z,1.92
2023-04-15T14:18:24.190Z,4.55
2023-04-15T14:20:54.683Z,1.95
2023-04-15T14:23:28.967Z,2.53
2023-04-15T14:25:59.127Z,1.70
2023-04-15T14:28:28.314Z,1.88
2023-04-15T14:30:55.463Z,1.70
2023-04-15T14:33:22.360Z,1.83
2023-04-15T14:35:51.723Z,1.70
2023-04-15T14:38:24.850Z,2.00
2023-04-15T14:40:51.854Z,4.10
2023-04-15T14:43:19.396Z,2.05
2023-04-15T14:45:46.226Z,2.97
2023-04-15T14:48:14.015Z,1.65
2023-04-15T14:50:41.129Z,2.17
2023-04-15T14:53:07.904Z,2.20
2023-04-15T14:55:34.726Z,2.85
2023-04-15T14:58:04.826Z,3.90
2023-04-15T15:00:32.186Z,1.50
2023-04-15T15:02:59.163Z,1.98
2023-04-15T15:05:29.820Z,1.70
2023-04-15T15:07:56.530Z,9.27
2023-04-15T15:10:32.717Z,13.45
2023-04-15T15:13:11.143Z,1.30
2023-04-15T15:15:39.133Z,1.20
2023-04-15T15:18:08.415Z,1.40
2023-04-15T15:20:36.133Z,1.55
2023-04-15T15:23:03.307Z,1.60
2023-04-15T15:25:30.495Z,1.70
2023-04-15T15:27:59.117Z,1.95
2023-04-15T15:30:25.932Z,1.70
2023-04-15T15:32:53.796Z,1.98
2023-04-15T15:35:24.777Z,1.60
2023-04-15T15:37:52.374Z,1.50
2023-04-15T15:40:19.290Z,1.40
2023-04-15T15:42:47.614Z,7.32
2023-04-15T15:45:14.863Z,1.60
2023-04-15T15:47:41.798Z,1.40
2023-04-15T15:50:09.111Z,1.30
2023-04-15T15:52:39.311Z,1.30
2023-04-15T15:55:06.562Z,1.20
2023-04-15T15:57:33.443Z,1.00
2023-04-15T16:00:10.624Z,1.63
2023-04-15T16:05:19.296Z,3.05
2023-04-15T16:07:46.023Z,2.00
2023-04-15T16:10:14.111Z,1.38
2023-04-15T16:12:44.764Z,1.70
2023-04-15T16:15:12.427Z,1.33
2023-04-15T16:17:40.410Z,2.78
2023-04-15T16:20:07.763Z,1.85
2023-04-15T16:22:40.862Z,1.50
2023-04-15T16:25:11.402Z,1.58
2023-04-15T16:30:09.785Z,1.48
2023-04-15T16:32:38.088Z,1.45
2023-04-15T16:35:05.160Z,1.15
2023-04-15T16:37:33.371Z,1.55
2023-04-15T16:40:03.329Z,1.58
2023-04-15T16:42:31.365Z,2.13
2023-04-15T16:45:00.365Z,3.50
2023-04-15T16:47:27.119Z,2.70
2023-04-15T16:49:54.752Z,1.60
2023-04-15T16:52:22.760Z,1.63
2023-04-15T16:54:51.063Z,1.60
2023-04-15T16:57:17.991Z,2.17
2023-04-15T16:59:44.896Z,2.70
2023-04-15T17:02:13.257Z,5.10
2023-04-15T17:04:40.272Z,1.67
2023-04-15T17:07:08.854Z,2.60
2023-04-15T17:09:36.361Z,1.80
2023-04-15T17:12:04.726Z,4.88
2023-04-15T17:14:33.143Z,2.75
2023-04-15T17:17:03.525Z,1.92
2023-04-15T17:19:32.068Z,13.75
2023-04-15T17:22:02.279Z,3.80
2023-04-15T17:24:29.728Z,2.13
2023-04-15T17:26:56.934Z,6.82
2023-04-15T17:29:30.291Z,1.65
2023-04-15T17:31:57.614Z,1.90
2023-04-15T17:34:24.442Z,1.92
2023-04-15T17:36:53.549Z,4.25
2023-04-15T17:39:20.789Z,4.43
2023-04-15T17:41:47.554Z,3.40
2023-04-15T17:44:22.396Z,1.92
2023-04-15T17:46:54.034Z,16.35
2023-04-15T17:49:20.875Z,1.98
2023-04-15T17:51:48.809Z,2.50
2023-04-15T17:54:15.581Z,1.90
2023-04-15T17:56:42.273Z,1.42
2023-04-15T17:59:09.042Z,3.10
2023-04-15T18:01:35.868Z,2.53
2023-04-15T18:04:03.418Z,2.25
2023-04-15T18:06:31.420Z,2.88
2023-04-15T18:08:58.012Z,2.50
2023-04-15T18:11:24.750Z,1.90
2023-04-15T18:13:52.970Z,2.45
2023-04-15T18:16:20.092Z,1.42
2023-04-15T18:18:46.854Z,3.50
2023-04-15T18:21:15.888Z,3.00
2023-04-15T18:23:42.802Z,2.80
2023-04-15T18:26:10.108Z,2.17
2023-04-15T18:28:39.152Z,2.92
2023-04-15T18:31:06.350Z,3.13
2023-04-15T18:33:33.202Z,3.63
2023-04-15T18:36:02.076Z,2.90
2023-04-15T18:38:28.895Z,2.53
2023-04-15T18:40:56.141Z,3.35
2023-04-15T18:43:24.194Z,2.63
2023-04-15T18:45:53.463Z,4.22
2023-04-15T18:48:20.568Z,3.40
2023-04-15T18:50:48.030Z,13.38
2023-04-15T18:53:15.627Z,3.38
2023-04-15T18:55:42.535Z,3.22
2023-04-15T18:58:09.417Z,2.00
2023-04-15T19:00:40.595Z,2.75
2023-04-15T19:03:09.793Z,2.78
2023-04-15T19:05:36.931Z,2.92
2023-04-15T19:08:03.875Z,2.40
2023-04-15T19:10:31.319Z,1.92
2023-04-15T19:12:58.063Z,2.50
2023-04-15T19:15:25.140Z,2.88
2023-04-15T19:17:51.976Z,3.80
2023-04-15T19:20:19.216Z,2.83
2023-04-15T19:22:52.695Z,2.60
2023-04-15T19:25:19.719Z,2.83
2023-04-15T19:27:46.406Z,3.22
2023-04-15T19:30:33.244Z,2.70
2023-04-15T19:33:01.585Z,2.50
2023-04-15T19:35:28.298Z,5.57
2023-04-15T19:37:56.610Z,2.13
2023-04-15T19:40:23.716Z,5.32
2023-04-15T19:42:57.576Z,2.53
2023-04-15T19:45:24.271Z,3.03
2023-04-15T19:47:57.957Z,2.70
2023-04-15T19:50:28.977Z,2.53
2023-04-15T19:52:56.067Z,2.72
2023-04-15T19:55:22.985Z,2.35
2023-04-15T19:57:49.968Z,2.30
2023-04-15T20:00:17.586Z,2.63
2023-04-15T20:02:44.432Z,3.35
2023-04-15T20:05:11.164Z,2.30
2023-04-15T20:07:39.635Z,2.75
2023-04-15T20:10:12.222Z,2.10
2023-04-15T20:12:50.029Z,2.10
2023-04-15T20:15:19.289Z,2.80
2023-04-15T20:17:46.217Z,2.25
2023-04-15T20:20:12.913Z,4.68
2023-04-15T20:22:41.407Z,3.03
2023-04-15T20:25:08.849Z,2.42
2023-04-15T20:27:35.759Z,2.40
2023-04-15T20:30:04.698Z,2.65
2023-04-15T20:32:35.249Z,2.30
2023-04-15T20:35:03.818Z,1.90
2023-04-15T20:37:33.181Z,2.60
2023-04-15T20:40:01.219Z,1.92
2023-04-15T20:42:28.153Z,2.42
2023-04-15T20:44:54.880Z,2.22
2023-04-15T20:47:21.605Z,2.55
2023-04-15T20:49:48.313Z,2.38
2023-04-15T20:52:16.558Z,2.40
2023-04-15T20:54:43.223Z,2.70
2023-04-15T20:57:09.838Z,2.17
2023-04-15T20:59:36.563Z,2.25
2023-04-15T21:02:03.266Z,2.95
2023-04-15T21:04:30.154Z,2.72
2023-04-15T21:06:56.853Z,1.90
2023-04-15T21:09:26.805Z,2.50
2023-04-15T21:12:01.150Z,2.13
2023-04-15T21:14:28.901Z,2.10
2023-04-15T21:16:57.715Z,2.03
2023-04-15T21:19:24.438Z,2.30
2023-04-15T21:21:50.986Z,2.22
2023-04-15T21:24:19.716Z,3.83
2023-04-15T21:26:46.656Z,2.38
2023-04-15T21:29:13.477Z,2.45
2023-04-15T21:31:40.439Z,2.65
2023-04-15T21:34:07.481Z,2.30
2023-04-15T21:36:34.313Z,2.83
2023-04-15T21:39:02.712Z,2.47
2023-04-15T21:41:29.879Z,2.58
2023-04-15T21:43:56.781Z,3.05
2023-04-15T21:46:25.675Z,3.25
2023-04-15T21:49:00.235Z,3.10
2023-04-15T21:51:27.699Z,2.10
2023-04-15T21:53:54.259Z,1.80
2023-04-15T21:56:23.218Z,2.50
2023-04-15T21:58:49.984Z,3.92
2023-04-15T22:01:17.012Z,1.73
2023-04-15T22:03:44.087Z,2.75
2023-04-15T22:06:11.296Z,2.47
2023-04-15T22:08:48.364Z,2.17
2023-04-15T22:11:26.237Z,2.60
2023-04-15T22:13:59.468Z,2.88
2023-04-15T22:16:29.005Z,2.72
2023-04-15T22:18:56.045Z,2.35
2023-04-15T22:21:23.295Z,2.42
2023-04-15T22:23:51.093Z,1.35
2023-04-15T22:26:17.731Z,2.20
2023-04-15T22:28:44.299Z,1.95
2023-04-15T22:31:11.208Z,2.90
2023-04-15T22:33:38.775Z,2.72
2023-04-15T22:36:05.829Z,3.63
2023-04-15T22:38:32.542Z,2.53
2023-04-15T22:40:59.346Z,2.78
2023-04-15T22:43:27.378Z,4.13
2023-04-15T22:45:55.133Z,2.38
2023-04-15T22:48:22.593Z,2.88
2023-04-15T22:50:49.789Z,3.20
2023-04-15T22:53:17.548Z,2.78
2023-04-15T22:55:46.678Z,2.88
2023-04-15T22:58:13.820Z,5.43
2023-04-15T23:00:40.843Z,2.40
2023-04-15T23:03:07.699Z,2.30
2023-04-15T23:05:34.538Z,3.35
2023-04-15T23:08:01.619Z,2.05
2023-04-15T23:10:28.677Z,2.53
2023-04-15T23:12:55.361Z,3.58
2023-04-15T23:15:22.169Z,3.28
2023-04-15T23:17:48.840Z,4.05
2023-04-15T23:20:16.269Z,4.07
2023-04-15T23:22:43.274Z,3.15
2023-04-15T23:25:09.944Z,2.47
2023-04-15T23:27:36.809Z,3.28
2023-04-15T23:30:04.170Z,6.80
2023-04-15T23:32:31.028Z,3.15
2023-04-15T23:34:57.702Z,5.55
2023-04-15T23:37:24.293Z,2.47
2023-04-15T23:39:51.001Z,3.75
2023-04-15T23:42:17.553Z,3.33
2023-04-15T23:44:44.932Z,3.92
2023-04-15T23:47:11.564Z,3.78
2023-04-15T23:49:40.890Z,3.35
2023-04-15T23:52:07.568Z,3.50
2023-04-15T23:54:34.452Z,4.22
2023-04-15T23:57:02.323Z,6.13
2023-04-15T23:59:29.556Z,7.10
